Terminal Aerodrome Forecast
Issued by NWS

Home | Current Version | Previous Version | Text Only | Print | Product List | Glossary On
Versions: 1 2 3 4 5 6 7 8 9 10 11 12 13 14
466
FTUS42 TJSJ 292339
TAFKPK
TAF
TKPK 292339Z 3000/3024 07008KT P6SM VCSH SCT018 BKN040
     FM301300 09012KT P6SM SCT020 SCT050
     FM302300 07008KT P6SM SCT018
      AMD NOT SKED 3002/3011=

USA.gov is the U.S. government's official web portal to all federal, state and local government web resources and services.